Aviation Digital Data Service (ADDS)

Output produced by METARs form (1417 UTC 19 December 2014)
found at http://aviationweather.gov/adds/metars/
 
KIAH 191140Z 1912/2018 08007KT 6SM -RA VCTS BKN005 OVC009CB 
     TEMPO 1912/1914 2SM TSRA OVC004CB 
     FM192100 02010KT P6SM VCSH SCT015 BKN025 
     FM200000 02007KT P6SM BKN010 OVC015 
     FM200900 01008KT P6SM BKN015